Погода Егорьена 2 недели

Смоленская область, Россия

26 мая-08 июня
  • 26мая
    Сегодня
    +10°
    +27°
    Небольшая облачность
    ВремяПогодаТемператураВлажностьДавлениеВетер, м/сВероятность осадков
    00:00Ясно и безоблачно+11°C70 %753 мм0.0 м/с2 %
    03:00Ясно и безоблачно+8°C71 %753 мм0.1 м/с2 %
    06:00Ясно и безоблачно+9°C72 %753 мм0.0 м/с2 %
    09:00Ясно и безоблачно+20°C58 %753 мм0.8 м/с2 %
    12:00Практически безоблачно+25°C37 %753 мм1.6 м/с2 %
    15:00Небольшая облачность+26°C35 %752 мм1.7 м/с6 %
    18:00Небольшая облачность и лёгкий дождик+24°C52 %753 мм1.7 м/с16 %
    21:00Практически безоблачно+18°C75 %753 мм1.3 м/с4 %
  • 27мая
    Понедельник
    +11°
    +25°
    Облачно с прояснениями
    ВремяПогодаТемператураВлажностьДавлениеВетер, м/сВероятность осадков
    00:00Ясно и безоблачно+13°C85 %753 мм0.3 м/с2 %
    03:00Ясно и безоблачно+11°C88 %754 мм1.2 м/с2 %
    06:00Ясно и безоблачно+11°C77 %755 мм1.1 м/с2 %
    09:00Ясно и безоблачно+19°C59 %755 мм1.5 м/с2 %
    12:00Практически безоблачно+23°C47 %755 мм1.6 м/с5 %
    15:00Облачно с прояснениями+24°C38 %754 мм1.0 м/с3 %
    18:00Практически безоблачно+24°C39 %753 мм1.3 м/с1 %
    21:00Ясно и безоблачно+18°C55 %753 мм0.7 м/с2 %
  • 28мая
    Вторник
    +10°
    +25°
    Облачно с прояснениями
    ВремяПогодаТемператураВлажностьДавлениеВетер, м/сВероятность осадков
    00:00Небольшая облачность+14°C61 %753 мм0.7 м/с2 %
    03:00Небольшая облачность+12°C66 %753 мм0.6 м/с2 %
    06:00Небольшая облачность+13°C68 %753 мм0.4 м/с2 %
    09:00Ясно и безоблачно+21°C50 %753 мм1.2 м/с2 %
    12:00Практически безоблачно+25°C39 %752 мм1.4 м/с2 %
    15:00Облачно с прояснениями+25°C34 %751 мм0.6 м/с3 %
    18:00Небольшая облачность+25°C35 %750 мм1.4 м/с4 %
    21:00Ясно и безоблачно+18°C54 %750 мм0.0 м/с2 %
  • 29мая
    Среда
    +12°
    +28°
    Ясно и безоблачно
    ВремяПогодаТемператураВлажностьДавлениеВетер, м/сВероятность осадков
    00:00Ясно и безоблачно+13°C65 %749 мм0.2 м/с2 %
    03:00Ясно и безоблачно+11°C77 %749 мм0.1 м/с2 %
    06:00Ясно и безоблачно+13°C75 %748 мм0.0 м/с2 %
    09:00Ясно и безоблачно+23°C51 %748 мм0.3 м/с2 %
    12:00Ясно и безоблачно+26°C37 %748 мм1.3 м/с14 %
    15:00Ясно и безоблачно+27°C34 %747 мм0.0 м/с19 %
    18:00Практически безоблачно+27°C35 %746 мм0.0 м/с26 %
    21:00Облачно с прояснениями+20°C59 %746 мм0.2 м/с2 %
  • 30мая
    Четверг
    +12°
    +28°
    Небольшая облачность
    ВремяПогодаТемператураВлажностьДавлениеВетер, м/сВероятность осадков
    00:00Ясно и безоблачно+15°C78 %745 мм0.0 м/с2 %
    03:00Ясно и безоблачно+13°C83 %745 мм0.0 м/с2 %
    06:00Ясно и безоблачно+14°C86 %745 мм0.1 м/с2 %
    09:00Ясно и безоблачно+23°C56 %745 мм0.6 м/с2 %
    12:00Практически безоблачно+27°C37 %745 мм1.9 м/с5 %
    15:00Небольшая облачность+27°C32 %745 мм1.6 м/с20 %
    18:00Практически безоблачно+28°C31 %744 мм0.2 м/с24 %
    21:00Облачно с прояснениями+21°C56 %744 мм0.1 м/с5 %
Мы используем cookies
Соглашаюсь